Weather observations for the past three days for
Brigham City Regional Airport
Imperial (Metric)
Date Time (mdt) Wind (mph) Vis. (mi.) Weather Sky Cond. Temperature (ºF) Relative Humidity Wind Chill (°F) Heat Index (°F) Pressure Precipitation (in)
Air Dwpt 6 hour altimeter (in) sea level (mb) 1 hr 3 hr 6 hr
Max. Min.
10 10:35 Vrbl 1 10.00 Fair CLR 64.4 30.2 28% 30.21 0.0
10 10:15 N 2 10.00 Fair CLR 62.6 33.8 34% 30.21 0.0
10 09:55 NE 2 10.00 Fair CLR 60.8 33.8 36% 30.21 0.0
10 09:35 Vrbl 1 10.00 Fair CLR 59 39.2 48% 30.21 0.0
10 09:15 N 3 10.00 Fair CLR 55.4 37.4 51% 30.21 0.0
10 08:55 Vrbl 2 10.00 Fair CLR 53.6 35.6 51% 30.21 0.0
10 08:35 NW 3 10.00 Fair CLR 51.8 35.6 54% 30.21 0.0
10 08:15 NE 2 10.00 Fair CLR 50 37.4 62% 30.2 0.0
10 07:55 Vrbl 2 10.00 Fair CLR 48.2 35.6 62% 30.2 0.0
10 07:35 NW 3 10.00 Fair CLR 44.6 33.8 66% 30.19 0.0
10 06:55 NW 6 10.00 Fair CLR 42.8 37.4 81% 40 30.18 0.0
10 06:35 NW 5 10.00 Fair CLR 42.8 35.6 76% 41 30.18 0.0
10 06:15 NE 3 10.00 Fair CLR 42.8 37.4 81% 30.17 0.0
10 05:55 SE 2 10.00 Fair CLR 42.8 37.4 55 41.9 81% 30.17 0.0
10 05:35 NW 5 10.00 Fair CLR 42.8 33.8 71% 41 30.17 0.0
10 05:15 W 2 10.00 Fair CLR 44.6 33.8 66% 30.17 0.0
10 04:55 W 2 10.00 Fair CLR 42.8 35.6 76% 30.16 0.0
10 04:35 N 3 10.00 Fair CLR 44.6 33.8 66% 30.16 0.0
10 04:15 W 5 10.00 Fair CLR 46.4 32 57% 45 30.15 0.0
10 03:55 NW 8 10.00 Fair CLR 46.4 33.8 62% 43 30.15 0.0
10 03:35 NW 7 10.00 Fair CLR 46.4 32 57% 43 30.15 0.0
10 03:15 NW 5 10.00 Fair CLR 48.2 32 54% 47 30.14 0.0
10 02:55 NW 3 10.00 Fair CLR 48.2 33.8 58% 30.14 0.0
10 02:35 Vrbl 2 10.00 Fair CLR 48.2 39.2 71% 30.14 0.0
10 02:15 Vrbl 2 10.00 Fair CLR 48.2 37.4 66% 30.14 0.0
10 01:55 Vrbl 2 10.00 Fair CLR 50 35.6 58% 30.14 0.0
10 01:35 NW 7 10.00 Fair CLR 50 35.6 58% 48 30.14 0.0
10 01:15 NW 6 10.00 Fair CLR 50 33.8 54% 48 30.13 0.0
10 00:55 N 2 10.00 Fair CLR 51.8 37.4 58% 30.13 0.0
10 00:35 NW 3 10.00 Fair CLR 53.6 33.8 47% 30.13 0.0
10 00:15 Vrbl 3 10.00 Partly Cloudy SCT100 55.4 32 41% 30.13 0.0
09 23:55 NW 1 10.00 Mostly Cloudy BKN100 55.4 35.6 74.1 54.3 47% 30.12 0.0
09 23:35 S 2 10.00 Mostly Cloudy BKN100 55.4 35.6 47% 30.12 0.0
09 23:15 W 7 10.00 Partly Cloudy SCT110 57.2 32 39% 30.11 0.0
09 22:55 W 7 10.00 Fair CLR 59 32 36% 30.11 0.0
09 22:35 SW 7 10.00 Fair CLR 60.8 32 34% 30.1 0.0
09 22:15 Calm 10.00 Fair CLR 62.6 33.8 34% 30.1 0.0
09 21:55 Vrbl 1 10.00 Fair CLR 60.8 37.4 42% 30.09 0.0
09 21:15 Calm 10.00 Fair CLR 62.6 33.8 34% 30.07 0.0
09 20:55 NW 8 10.00 Fair CLR 64.4 33.8 32% 30.06 0.0
09 20:35 NW 7 10.00 Fair CLR 64.4 32 30% 30.06 0.0
09 20:15 NW 8 10.00 Fair CLR 68 30.2 24% 30.05 0.0
09 19:55 NW 8 10.00 Fair CLR 69.8 30.2 23% 30.05 0.0
09 19:35 NW 9 10.00 Fair CLR 71.6 28.4 20% 30.05 0.0
09 19:15 NW 5 10.00 Fair CLR 73.4 24.8 16% 30.04 0.0
09 18:55 S 3 10.00 Fair CLR 73.4 26.6 17% 30.04 0.0
09 18:35 S 13 10.00 Fair CLR 73.4 26.6 17% 30.04 0.0
09 18:15 S 12 10.00 Fair CLR 73.4 26.6 17% 30.04 0.0
09 17:55 S 12 G 16 10.00 Fair CLR 73.4 28.4 74.1 66.9 19% 30.04 0.0
09 17:35 S 9 10.00 Fair CLR 73.4 26.6 17% 30.04 0.0
09 17:15 S 7 10.00 Fair CLR 73.4 28.4 19% 30.05 0.0
09 16:55 SE 8 10.00 Fair CLR 73.4 28.4 19% 30.06 0.0
09 16:35 S 10 10.00 Fair CLR 73.4 28.4 19% 30.06 0.0
09 16:15 S 8 G 20 10.00 Fair CLR 73.4 30.2 20% 30.07 0.0
09 15:55 S 13 10.00 Fair CLR 71.6 32 23% 30.07 0.0
09 15:35 S 14 G 18 10.00 Fair CLR 71.6 30.2 22% 30.08 0.0
09 15:15 S 15 G 24 10.00 Fair CLR 71.6 30.2 22% 30.08 0.0
09 14:55 SW 17 10.00 Fair CLR 71.6 30.2 22% 30.08 0.0
09 14:35 SW 8 G 21 10.00 Fair CLR 73.4 28.4 19% 30.08 0.0
09 14:15 W 14 G 26 10.00 Fair CLR 73.4 19.4 13% 30.08 0.0
09 13:55 Vrbl 5 G 16 10.00 Fair CLR 71.6 21.2 15% 30.09 0.0
09 13:35 Vrbl 5 10.00 Fair CLR 71.6 21.2 15% 30.1 0.0
09 13:15 NW 10 G 16 10.00 Fair CLR 69.8 23 17% 30.1 0.0
09 12:55 W 7 10.00 Fair CLR 69.8 23 17% 30.1 0.0
09 12:35 W 9 10.00 Fair CLR 68 23 18% 30.11 0.0
09 12:15 Vrbl 6 10.00 Fair CLR 68 19.4 16% 30.11 0.0
09 11:55 N 9 10.00 Fair CLR 68 21.2 67.6 49.3 17% 30.11 0.0
09 11:35 W 7 10.00 Fair CLR 66.2 24.8 21% 30.12 0.0
09 11:15 NW 13 10.00 Fair CLR 66.2 26.6 22% 30.11 0.0
09 10:55 Vrbl 6 10.00 Fair CLR 66.2 26.6 22% 30.11 0.0
09 10:35 NW 9 10.00 Fair CLR 64.4 26.6 24% 30.11 0.0
09 10:15 NW 6 10.00 Fair CLR 64.4 24.8 22% 30.12 0.0
09 09:55 N 7 10.00 Fair CLR 62.6 28.4 27% 30.11 0.0
09 09:35 Vrbl 5 5.00 Fair with Haze CLR 60.8 32 34% 30.12 0.0
09 09:15 N 3 10.00 Fair CLR 60.8 32 34% 30.11 0.0
09 08:55 NE 5 10.00 Fair CLR 59 33.8 39% 30.11 0.0
09 08:35 N 5 10.00 Fair CLR 57.2 35.6 44% 30.11 0.0
09 08:15 N 2 10.00 Fair CLR 55.4 37.4 51% 30.1 0.0
09 07:55 Calm 10.00 Fair CLR 55.4 32 41% 30.1 0.0
09 07:35 NW 2 10.00 Fair CLR 51.8 32 47% 30.09 0.0
09 07:15 W 1 10.00 Fair CLR 50 33.8 54% 30.09 0.0
09 06:55 S 2 10.00 Fair CLR 50 32 50% 30.08 0.0
09 06:35 NE 6 10.00 Fair CLR 55.4 28.4 36% 30.07 0.0
09 06:15 SE 3 10.00 Fair CLR 51.8 32 47% 30.07 0.0
09 05:55 W 5 10.00 Fair CLR 53.6 30.2 64 51.4 41% 30.06 0.0
09 05:35 E 5 10.00 Fair CLR 57.2 30.2 36% 30.06 0.0
09 05:15 SE 2 10.00 Fair CLR 57.2 26.6 31% 30.05 0.0
09 04:55 Vrbl 3 10.00 Fair CLR 53.6 30.2 41% 30.05 0.0
09 04:35 NW 12 10.00 Fair CLR 57.2 26.6 31% 30.05 0.0
09 04:15 NW 12 10.00 Fair CLR 57.2 30.2 36% 30.05 0.0
09 03:55 NE 5 10.00 Fair CLR 53.6 32 44% 30.05 0.0
09 03:35 NW 8 10.00 Fair CLR 57.2 26.6 31% 30.04 0.0
09 03:15 NW 12 10.00 Fair CLR 59 28.4 31% 30.04 0.0
09 02:55 NW 22 G 33 10.00 Fair and Breezy CLR 62.6 24.8 24% 30.02 0.0
09 02:35 NW 16 10.00 Fair CLR 60.8 26.6 27% 30.02 0.0
09 01:55 NW 10 10.00 Fair CLR 60.8 26.6 27% 30.02 0.0
09 01:35 NW 8 10.00 Fair CLR 60.8 28.4 29% 30.02 0.0
09 01:15 N 10 G 22 10.00 Fair CLR 55.4 39.2 55% 30.01 0.0
09 00:55 Vrbl 1 9.00 Fair CLR 57.2 39.2 51% 30.01 0.0
09 00:35 Vrbl 2 10.00 Fair CLR 57.2 41 55% 30 0.0
09 00:15 NE 2 7.00 Fair with Haze CLR 55.4 44.6 67% 30 0.0
08 23:55 N 3 2.50 Fair with Haze CLR 57.2 39.2 76.3 55.2 51% 29.99 0.0
08 23:35 NE 2 2.50 Fair with Haze CLR 59 41 51% 29.99 0.0
08 23:15 N 3 10.00 Fair CLR 60.8 39.2 45% 29.99 0.0
08 22:55 N 6 2.00 Fair with Haze CLR 59 48.2 68% 29.98 0.0
08 22:35 Vrbl 2 10.00 Fair CLR 60.8 39.2 45% 29.98 0.0
08 22:15 SE 3 10.00 Fair CLR 62.6 42.8 49% 29.97 0.0
08 21:55 NW 3 10.00 Fair CLR 62.6 42.8 49% 29.97 0.0
08 21:35 NW 7 10.00 Fair CLR 62.6 42.8 49% 29.97 0.0
08 21:15 NW 6 10.00 Fair CLR 64.4 41 43% 29.96 0.0
08 20:55 NW 3 10.00 Fair CLR 69.8 39.2 33% 29.95 0.0
08 20:35 N 3 10.00 Fair CLR 71.6 39.2 31% 29.94 0.0
08 20:15 NE 3 10.00 Fair CLR 71.6 46.4 41% 29.93 0.0
08 19:55 NE 3 10.00 Fair CLR 71.6 42.8 36% 29.93 0.0
08 19:35 S 5 10.00 Fair CLR 71.6 37.4 29% 29.93 0.0
08 19:15 S 6 10.00 Fair CLR 73.4 37.4 27% 29.93 0.0
08 18:35 S 10 10.00 Fair CLR 75.2 33.8 22% 76 29.93 0.0
08 18:15 S 6 10.00 Fair CLR 75.2 33.8 22% 76 29.94 0.0
08 17:55 S 9 10.00 Fair CLR 75.2 33.8 76.5 69.6 22% 76 29.94 0.0
08 17:35 SW 6 10.00 Fair CLR 75.2 33.8 22% 76 29.94 0.0
08 17:15 Vrbl 5 10.00 Fair CLR 75.2 30.2 19% 76 29.95 0.0
08 16:55 SW 10 10.00 Fair CLR 75.2 35.6 24% 76 29.95 0.0
08 16:15 S 9 10.00 Fair CLR 75.2 33.8 22% 76 29.97 0.0
08 15:55 S 10 10.00 Fair CLR 73.4 33.8 23% 29.98 0.0
08 15:35 S 7 G 17 10.00 Fair CLR 73.4 35.6 25% 29.99 0.0
08 15:15 S 8 10.00 Fair CLR 73.4 35.6 25% 30 0.0
08 14:55 Vrbl 2 10.00 Fair CLR 73.4 33.8 23% 30 0.0
08 14:35 S 12 G 16 10.00 Fair CLR 71.6 33.8 25% 30 0.0
08 14:15 S 6 G 17 10.00 Fair CLR 73.4 35.6 25% 30.01 0.0
08 13:55 Vrbl 3 10.00 Fair CLR 71.6 32 23% 30.01 0.0
08 13:35 W 8 10.00 Fair CLR 73.4 35.6 25% 30.01 0.0
08 13:15 Vrbl 3 G 16 10.00 Fair CLR 71.6 33.8 25% 30.02 0.0
08 12:55 Vrbl 5 10.00 Fair CLR 71.6 35.6 27% 30.03 0.0
08 12:35 SW 7 10.00 Fair CLR 71.6 33.8 25% 30.03 0.0
08 12:15 SW 6 10.00 Fair CLR 69.8 33.8 27% 30.04 0.0
08 11:55 Vrbl 3 10.00 Fair CLR 69.8 35.6 70.9 43 29% 30.04 0.0
08 11:35 Vrbl 2 10.00 Fair CLR 69.8 37.4 31% 30.04 0.0
08 11:15 Vrbl 3 10.00 Fair CLR 68 37.4 33% 30.04 0.0
08 10:55 Vrbl 5 10.00 Fair CLR 68 35.6 30% 30.05 0.0
08 10:35 Vrbl 2 10.00 Fair CLR 68 35.6 30% 30.04 0.0
08 10:15 Calm 6.00 Light Rain Haze CLR 66.2 37.4 35% 30.04 0.0
08 09:55 Vrbl 2 10.00 Fair CLR 64.4 42.8 46% 30.04 0.0
08 09:35 NE 3 9.00 Fair CLR 62.6 44.6 52% 30.04 0.0
08 09:15 Calm 10.00 Fair CLR 60.8 44.6 55% 30.04 0.0
08 08:55 Vrbl 2 10.00 Fair CLR 57.2 42.8 59% 30.04 0.0
08 08:35 E 1 8.00 Light Drizzle CLR 53.6 42.8 67% 30.04 0.0
08 08:15 N 3 10.00 Fair CLR 51.8 42.8 72% 30.04 0.0
08 07:55 E 2 10.00 Fair CLR 50 42.8 76% 30.03 0.0
08 07:15 NE 2 10.00 Fair CLR 46.4 41 82% 30.01 0.0
08 06:35 E 5 10.00 Fair CLR 42.8 39.2 87% 41 30 0.0
08 06:15 NE 3 10.00 Fair CLR 46.4 39.2 76% 30 0.0
08 05:55 NW 2 10.00 Fair CLR 48.2 39.2 57.7 47.1 71% 29.99 0.0
08 05:35 NW 2 10.00 Fair CLR 50 41 71% 29.99 0.0
08 05:15 SE 5 10.00 Fair CLR 48.2 39.2 71% 47 29.98 0.0
08 04:55 Calm 10.00 Fair CLR 48.2 39.2 71% 29.97 0.0
08 04:35 NW 2 10.00 Fair CLR 48.2 39.2 71% 29.97 0.0
08 04:15 Vrbl 2 10.00 Fair CLR 50 42.8 76% 29.97 0.0
08 03:55 N 6 10.00 Fair CLR 50 41 71% 48 29.97 0.0
08 03:35 E 3 10.00 Fair CLR 51.8 41 67% 29.97 0.0
08 03:15 Vrbl 2 10.00 Fair CLR 51.8 35.6 54% 29.97 0.0
08 02:55 S 1 10.00 Fair CLR 53.6 37.4 54% 29.97 0.0
08 02:35 S 3 10.00 Fair CLR 53.6 39.2 58% 29.97 0.0
08 02:15 E 3 10.00 Fair CLR 51.8 39.2 62% 29.97 0.0
08 01:35 Vrbl 2 10.00 Fair CLR 51.8 41 67% 29.98 0.0
08 01:15 SE 3 10.00 Fair CLR 53.6 41 63% 29.97 0.0
08 00:55 N 3 10.00 Fair CLR 53.6 41 63% 29.97 0.0
08 00:35 E 5 10.00 Fair CLR 51.8 42.8 72% 29.97 0.0
08 00:15 N 3 10.00 Fair CLR 55.4 42.8 63% 29.96 0.0
07 23:55 Vrbl 1 10.00 Fair CLR 55.4 42.8 74.1 53.2 63% 29.96 0.0
07 23:35 SE 3 10.00 Fair CLR 53.6 46.4 77% 29.96 0.0
07 23:15 N 1 10.00 Fair CLR 57.2 44.6 63% 29.96 0.0
07 22:55 NW 3 10.00 Fair CLR 59 42.8 55% 29.96 0.0
07 22:35 NW 2 10.00 Fair CLR 60.8 41 48% 29.96 0.0
07 22:15 Calm 10.00 Fair CLR 60.8 48.2 63% 29.95 0.0
07 21:55 Calm 10.00 Fair CLR 62.6 46.4 56% 29.94 0.0
07 21:35 E 1 10.00 Fair CLR 64.4 44.6 49% 29.94 0.0
07 20:55 NE 1 10.00 Fair CLR 66.2 46.4 49% 29.93 0.0
07 20:35 NE 3 10.00 Fair CLR 66.2 46.4 49% 29.92 0.0
07 20:15 S 7 10.00 Fair CLR 69.8 42.8 38% 29.92 0.0
07 19:55 S 7 10.00 Fair CLR 71.6 41 33% 29.91 0.0
07 19:35 S 7 10.00 Fair CLR 73.4 39.2 29% 29.92 0.0
07 19:15 Vrbl 6 10.00 Fair CLR 73.4 37.4 27% 29.92 0.0
07 18:55 Vrbl 7 10.00 Fair CLR 73.4 37.4 27% 29.92 0.0
07 18:35 S 8 10.00 Fair CLR 73.4 37.4 27% 29.93 0.0
07 18:15 S 6 10.00 Fair CLR 73.4 37.4 27% 29.93 0.0
07 17:55 S 12 10.00 Fair CLR 73.4 37.4 73.8 66.7 27% 29.93 0.0
07 17:35 SW 9 10.00 Fair CLR 73.4 37.4 27% 29.93 0.0
07 17:15 S 15 G 18 10.00 Fair CLR 73.4 37.4 27% 29.93 0.0
07 16:55 S 10 G 17 10.00 Fair CLR 73.4 37.4 27% 29.94 0.0
07 16:35 SW 12 10.00 Fair CLR 73.4 35.6 25% 29.96 0.0
07 16:15 S 7 10.00 Fair CLR 71.6 35.6 27% 29.97 0.0
07 15:55 Vrbl 6 10.00 Fair CLR 71.6 35.6 27% 29.97 0.0
07 15:35 Vrbl 6 10.00 Fair CLR 71.6 33.8 25% 29.98 0.0
07 15:15 S 10 10.00 Fair CLR 69.8 33.8 27% 29.99 0.0
07 14:55 S 8 10.00 Fair CLR 68 33.8 28% 30.01 0.0
07 14:35 S 8 10.00 Fair CLR 69.8 32 25% 30.01 0.0
07 14:15 S 10 10.00 Fair CLR 68 32 26% 30.02 0.0
07 13:35 S 14 G 18 10.00 Fair CLR 68 33.8 28% 30.02 0.0
07 13:15 S 14 10.00 Fair CLR 68 33.8 28% 30.03 0.0
07 12:55 S 14 10.00 Fair CLR 68 32 26% 30.03 0.0
07 12:35 S 14 G 20 10.00 Fair CLR 68 32 26% 30.04 0.0
07 12:15 S 13 G 21 10.00 Fair CLR 68 32 26% 30.04 0.0
07 11:55 S 13 G 17 10.00 Fair CLR 68 30.2 67.3 49.6 24% 30.04 0.0
07 11:15 S 14 10.00 Fair CLR 66.2 32 28% 30.05 0.0
07 10:55 S 16 10.00 Fair CLR 64.4 32 30% 30.05 0.0
Date Time (mdt) Wind (mph) Vis. (mi.) Weather Sky Cond. Air Dwpt Max. Min. Relative Humidity Wind Chill (°F) Heat Index (°F) altimeter (in) sea level (mb) 1 hr 3 hr 6 hr
6 hour
Temperature (ºF) Pressure Precipitation (in)